createdAt,value
2023-04-11T00:02:11.172Z,85.94
2023-04-11T00:05:18.349Z,87.30
2023-04-11T00:08:27.091Z,88.84
2023-04-11T00:11:34.336Z,89.76
2023-04-11T00:14:41.699Z,90.82
2023-04-11T00:17:50.438Z,92.46
2023-04-11T00:20:51.646Z,93.38
2023-04-11T00:23:59.792Z,93.73
2023-04-11T00:27:08.847Z,94.34
2023-04-11T00:30:16.222Z,95.37
2023-04-11T00:33:23.999Z,96.08
2023-04-11T00:36:33.733Z,96.70
2023-04-11T00:39:41.272Z,97.52
2023-04-11T00:42:48.833Z,98.13
2023-04-11T00:45:56.423Z,98.44
2023-04-11T00:49:05.038Z,98.54
2023-04-11T00:52:12.849Z,98.79
2023-04-11T00:55:20.033Z,98.90
2023-04-11T00:58:28.887Z,98.99
2023-04-11T01:01:36.676Z,99.10
2023-04-11T01:04:44.512Z,99.15
2023-04-11T01:07:53.427Z,99.04
2023-04-11T01:11:00.814Z,98.94
2023-04-11T01:14:08.244Z,98.94
2023-04-11T01:17:17.477Z,98.74
2023-04-11T01:20:25.105Z,98.83
2023-04-11T01:23:33.049Z,98.94
2023-04-11T01:26:40.379Z,99.04
2023-04-11T01:29:50.211Z,99.25
2023-04-11T01:32:58.250Z,99.50
2023-04-11T01:36:06.028Z,99.50
2023-04-11T01:39:15.171Z,99.70
2023-04-11T01:42:23.168Z,99.91
2023-04-11T01:45:30.144Z,99.99
2023-04-11T01:48:39.571Z,99.99
2023-04-11T01:51:46.916Z,99.99
2023-04-11T01:54:54.301Z,99.99
2023-04-11T01:58:03.253Z,99.99
2023-04-11T02:01:10.064Z,99.99
2023-04-11T02:04:17.828Z,99.99
2023-04-11T02:07:26.865Z,99.99
2023-04-11T02:10:34.017Z,99.99
2023-04-11T02:13:41.762Z,99.99
2023-04-11T02:16:49.261Z,99.99
2023-04-11T02:19:58.103Z,99.99
2023-04-11T02:23:05.919Z,99.99
2023-04-11T02:26:12.999Z,99.99
2023-04-11T02:29:22.349Z,99.65
2023-04-11T02:32:29.810Z,99.44
2023-04-11T02:35:37.064Z,99.54
2023-04-11T02:38:46.465Z,99.44
2023-04-11T02:41:53.535Z,99.44
2023-04-11T02:45:01.418Z,99.54
2023-04-11T02:48:10.361Z,99.24
2023-04-11T02:51:17.423Z,99.03
2023-04-11T02:54:25.483Z,98.93
2023-04-11T02:57:32.495Z,98.77
2023-04-11T03:00:41.737Z,98.36
2023-04-11T03:03:49.673Z,98.05
2023-04-11T03:06:56.536Z,98.16
2023-04-11T03:10:05.736Z,98.36
2023-04-11T03:13:12.701Z,98.10
2023-04-11T03:16:20.510Z,97.79
2023-04-11T03:19:29.746Z,97.58
2023-04-11T03:22:36.685Z,97.22
2023-04-11T03:25:44.566Z,97.32
2023-04-11T03:28:53.532Z,97.32
2023-04-11T03:32:01.215Z,96.75
2023-04-11T03:35:09.054Z,96.75
2023-04-11T03:38:16.101Z,96.85
2023-04-11T03:41:25.727Z,97.10
2023-04-11T03:44:33.536Z,97.10
2023-04-11T03:47:40.566Z,97.00
2023-04-11T03:50:49.812Z,97.10
2023-04-11T03:53:57.209Z,97.10
2023-04-11T03:57:04.696Z,97.00
2023-04-11T04:00:13.990Z,96.69
2023-04-11T04:03:21.164Z,96.69
2023-04-11T04:06:29.018Z,96.48
2023-04-11T04:09:37.754Z,96.69
2023-04-11T04:12:45.175Z,96.44
2023-04-11T04:15:53.048Z,96.03
2023-04-11T04:19:00.312Z,95.93
2023-04-11T04:22:09.181Z,95.27
2023-04-11T04:25:16.858Z,93.93
2023-04-11T04:28:24.399Z,94.04
2023-04-11T04:31:33.321Z,93.52
2023-04-11T04:34:41.485Z,93.93
2023-04-11T04:37:48.937Z,93.89
2023-04-11T04:40:57.741Z,93.79
2023-04-11T04:44:05.705Z,93.17
2023-04-11T04:47:12.783Z,93.17
2023-04-11T04:50:21.688Z,92.97
2023-04-11T04:53:28.752Z,92.46
2023-04-11T04:56:36.368Z,91.94
2023-04-11T04:59:45.101Z,91.94
2023-04-11T05:02:52.811Z,91.47
2023-04-11T05:06:00.453Z,92.08
2023-04-11T05:09:07.954Z,92.50
2023-04-11T05:12:17.577Z,92.60
2023-04-11T05:15:24.915Z,92.08
2023-04-11T05:18:32.480Z,92.40
2023-04-11T05:21:41.713Z,92.91
2023-04-11T05:24:48.676Z,91.99
2023-04-11T05:27:56.371Z,90.85
2023-04-11T05:31:05.275Z,89.25
2023-04-11T05:34:12.459Z,89.85
2023-04-11T05:37:19.790Z,91.58
2023-04-11T05:40:29.031Z,93.83
2023-04-11T05:43:35.963Z,94.76
2023-04-11T05:46:44.108Z,96.30
2023-04-11T05:49:51.839Z,96.41
2023-04-11T05:53:00.310Z,97.64
2023-04-11T05:56:07.906Z,98.42
2023-04-11T05:59:15.452Z,98.99
2023-04-11T06:02:24.229Z,99.19
2023-04-11T06:05:32.081Z,98.94
2023-04-11T06:08:39.434Z,98.43
2023-04-11T06:11:48.188Z,98.43
2023-04-11T06:14:55.846Z,98.43
2023-04-11T06:18:03.335Z,98.38
2023-04-11T06:21:12.156Z,97.87
2023-04-11T06:24:19.559Z,96.80
2023-04-11T06:27:27.084Z,95.61
2023-04-11T06:30:34.385Z,95.36
2023-04-11T06:33:42.960Z,95.56
2023-04-11T06:36:50.834Z,95.93
2023-04-11T06:39:58.607Z,94.70
2023-04-11T06:43:07.077Z,93.87
2023-04-11T06:46:15.092Z,93.21
2023-04-11T06:49:22.822Z,92.19
2023-04-11T06:52:31.339Z,91.02
2023-04-11T06:55:38.986Z,90.22
2023-04-11T06:58:46.383Z,88.59
2023-04-11T07:01:55.255Z,88.90
2023-04-11T07:05:03.142Z,87.51
2023-04-11T07:08:10.544Z,89.09
2023-04-11T07:11:19.995Z,90.11
2023-04-11T07:14:18.424Z,88.57
2023-04-11T07:17:25.810Z,88.92
2023-04-11T07:20:33.236Z,88.35
2023-04-11T07:23:42.103Z,89.58
2023-04-11T07:26:49.821Z,90.75
2023-04-11T07:29:57.327Z,91.44
2023-04-11T07:33:06.338Z,94.18
2023-04-11T07:36:13.838Z,97.17
2023-04-11T07:39:21.290Z,98.55
2023-04-11T07:42:30.244Z,99.11
2023-04-11T07:45:38.222Z,99.57
2023-04-11T07:48:45.789Z,99.99
2023-04-11T07:51:53.155Z,99.99
2023-04-11T07:55:02.174Z,99.99
2023-04-11T07:58:09.205Z,99.99
2023-04-11T08:01:16.844Z,99.99
2023-04-11T08:04:26.184Z,99.99
2023-04-11T08:07:33.342Z,99.99
2023-04-11T08:10:41.355Z,99.99
2023-04-11T08:13:50.315Z,99.99
2023-04-11T08:16:57.362Z,99.99
2023-04-11T08:20:05.191Z,99.99
2023-04-11T08:23:13.961Z,99.83
2023-04-11T08:26:21.275Z,99.48
2023-04-11T08:29:28.772Z,98.35
2023-04-11T08:32:37.645Z,96.19
2023-04-11T08:35:45.505Z,96.25
2023-04-11T08:38:52.737Z,95.18
2023-04-11T08:42:00.108Z,93.33
2023-04-11T08:45:09.395Z,93.19
2023-04-11T08:48:16.750Z,92.74
2023-04-11T08:51:24.184Z,92.02
2023-04-11T08:54:33.333Z,91.09
2023-04-11T08:57:40.225Z,89.60
2023-04-11T09:00:48.244Z,90.07
2023-04-11T09:03:57.826Z,89.25
2023-04-11T09:07:04.996Z,88.94
2023-04-11T09:10:12.826Z,89.72
2023-04-11T09:13:21.709Z,88.92
2023-04-11T09:16:28.961Z,85.64
2023-04-11T09:19:36.662Z,84.63
2023-04-11T09:22:44.384Z,84.52
2023-04-11T09:25:52.759Z,83.91
2023-04-11T09:29:00.459Z,82.57
2023-04-11T09:32:07.906Z,82.68
2023-04-11T09:35:16.552Z,83.66
2023-04-11T09:38:24.210Z,83.05
2023-04-11T09:41:31.647Z,81.51
2023-04-11T09:44:40.177Z,80.43
2023-04-11T09:47:47.751Z,81.51
2023-04-11T09:50:58.554Z,79.88
2023-04-11T09:53:57.021Z,80.32
2023-04-11T09:57:04.378Z,79.36
2023-04-11T10:00:12.061Z,76.43
2023-04-11T10:03:19.678Z,78.54
2023-04-11T10:06:28.645Z,76.23
2023-04-11T10:09:36.350Z,74.29
2023-04-11T10:12:43.934Z,74.97
2023-04-11T10:15:52.812Z,75.00
2023-04-11T10:19:00.733Z,76.06
2023-04-11T10:22:08.421Z,75.89
2023-04-11T10:25:17.083Z,75.31
2023-04-11T10:28:24.856Z,71.63
2023-04-11T10:31:32.072Z,72.92
2023-04-11T10:34:41.172Z,71.60
2023-04-11T10:37:48.529Z,71.73
2023-04-11T10:40:55.734Z,69.70
2023-04-11T10:44:03.625Z,67.12
2023-04-11T10:47:12.545Z,68.51
2023-04-11T10:50:19.853Z,68.44
2023-04-11T10:53:27.164Z,72.82
2023-04-11T10:56:36.478Z,78.52
2023-04-11T10:59:43.752Z,80.78
2023-04-11T11:02:51.126Z,81.57
2023-04-11T11:06:00.443Z,78.86
2023-04-11T11:09:07.776Z,79.91
2023-04-11T11:12:15.262Z,76.06
2023-04-11T11:15:24.200Z,72.96
2023-04-11T11:18:31.770Z,72.04
2023-04-11T11:21:39.254Z,70.68
2023-04-11T11:24:46.910Z,70.81
2023-04-11T11:27:55.710Z,67.72
2023-04-11T11:31:03.088Z,67.76
2023-04-11T11:37:11.762Z,68.53
2023-04-11T11:40:19.036Z,69.93
2023-04-11T11:43:26.387Z,67.99
2023-04-11T11:46:35.836Z,67.59
2023-04-11T11:49:42.814Z,65.17
2023-04-11T11:52:50.400Z,66.09
2023-04-11T11:55:59.574Z,66.70
2023-04-11T11:59:06.660Z,63.31
2023-04-11T12:02:14.575Z,62.97
2023-04-11T12:05:21.943Z,61.31
2023-04-11T12:08:30.625Z,62.13
2023-04-11T12:11:38.322Z,64.26
2023-04-11T12:14:45.589Z,62.20
2023-04-11T12:17:54.585Z,58.10
2023-04-11T12:21:02.431Z,57.31
2023-04-11T12:24:09.379Z,58.13
2023-04-11T12:27:18.032Z,56.50
2023-04-11T12:30:25.393Z,58.00
2023-04-11T12:33:33.239Z,56.40
2023-04-11T12:36:41.977Z,55.10
2023-04-11T12:39:49.146Z,57.78
2023-04-11T12:42:57.626Z,56.70
2023-04-11T12:46:06.614Z,55.07
2023-04-11T12:49:13.951Z,56.02
2023-04-11T12:52:21.750Z,55.81
2023-04-11T12:55:29.863Z,56.22
2023-04-11T12:58:39.132Z,56.93
2023-04-11T13:01:47.061Z,56.65
2023-04-11T13:04:54.376Z,56.99
2023-04-11T13:08:03.798Z,57.29
2023-04-11T13:11:11.563Z,57.39
2023-04-11T13:14:19.052Z,59.28
2023-04-11T13:17:27.932Z,56.37
2023-04-11T13:20:35.270Z,56.55
2023-04-11T13:23:42.680Z,56.39
2023-04-11T13:26:51.427Z,56.09
2023-04-11T13:29:59.029Z,55.81
2023-04-11T13:33:07.115Z,57.92
2023-04-11T13:36:14.321Z,58.15
2023-04-11T13:39:23.115Z,58.64
2023-04-11T13:42:30.712Z,59.22
2023-04-11T13:45:38.008Z,59.35
2023-04-11T13:48:47.420Z,59.45
2023-04-11T13:51:55.137Z,60.09
2023-04-11T13:55:02.169Z,60.22
2023-04-11T13:58:14.492Z,62.52
2023-04-11T14:01:11.801Z,61.34
2023-04-11T14:04:18.898Z,71.22
2023-04-11T14:07:27.988Z,77.58
2023-04-11T14:10:36.789Z,80.97
2023-04-11T14:13:43.857Z,82.79
2023-04-11T14:16:51.892Z,85.14
2023-04-11T14:20:01.595Z,86.45
2023-04-11T14:23:09.029Z,87.52
2023-04-11T14:26:16.499Z,89.07
2023-04-11T14:29:25.268Z,90.00
2023-04-11T14:32:32.791Z,90.57
2023-04-11T14:35:40.112Z,91.11
2023-04-11T14:38:48.889Z,90.09
2023-04-11T14:41:56.661Z,90.80
2023-04-11T14:45:03.828Z,90.50
2023-04-11T14:48:13.244Z,83.07
2023-04-11T14:51:21.032Z,86.11
2023-04-11T14:54:28.700Z,82.83
2023-04-11T14:57:36.106Z,80.72
2023-04-11T15:00:45.298Z,82.77
2023-04-11T15:03:52.600Z,80.82
2023-04-11T15:07:00.412Z,77.98
2023-04-11T15:10:09.245Z,74.80
2023-04-11T15:13:16.573Z,75.42
2023-04-11T15:16:24.787Z,75.93
2023-04-11T15:19:34.088Z,77.92
2023-04-11T15:22:41.977Z,79.36
2023-04-11T15:25:49.554Z,78.78
2023-04-11T15:28:58.292Z,78.78
2023-04-11T15:32:05.590Z,76.76
2023-04-11T15:35:13.337Z,77.48
2023-04-11T15:38:22.033Z,80.80
2023-04-11T15:41:29.583Z,82.79
2023-04-11T15:44:37.243Z,85.16
2023-04-11T15:47:45.125Z,84.95
2023-04-11T15:50:53.950Z,86.19
2023-04-11T15:54:01.269Z,88.00
2023-04-11T15:57:08.983Z,86.72
2023-04-11T16:00:17.735Z,86.52
2023-04-11T16:03:25.389Z,86.07
2023-04-11T16:06:33.196Z,87.67
2023-04-11T16:09:41.778Z,86.25
2023-04-11T16:12:49.381Z,84.20
2023-04-11T16:15:56.818Z,82.83
2023-04-11T16:19:05.640Z,81.26
2023-04-11T16:22:13.375Z,80.44
2023-04-11T16:25:21.744Z,77.87
2023-04-11T16:28:29.087Z,79.21
2023-04-11T16:31:38.163Z,78.19
2023-04-11T16:34:45.257Z,78.19
2023-04-11T16:37:52.623Z,77.57
2023-04-11T16:41:01.763Z,77.47
2023-04-11T16:44:09.104Z,75.31
2023-04-11T16:47:17.645Z,76.34
2023-04-11T16:50:26.632Z,79.21
2023-04-11T16:53:33.932Z,72.89
2023-04-11T16:56:41.466Z,72.68
2023-04-11T16:59:50.357Z,77.50
2023-04-11T17:02:58.179Z,76.41
2023-04-11T17:06:06.615Z,79.08
2023-04-11T17:09:14.793Z,82.15
2023-04-11T17:12:23.378Z,79.80
2023-04-11T17:15:31.491Z,77.74
2023-04-11T17:18:39.574Z,80.00
2023-04-11T17:21:48.484Z,81.43
2023-04-11T17:24:56.404Z,80.65
2023-04-11T17:28:03.764Z,82.60
2023-04-11T17:31:12.994Z,79.87
2023-04-11T17:34:20.799Z,82.64
2023-04-11T17:37:28.134Z,83.98
2023-04-11T17:40:37.569Z,83.70
2023-04-11T17:43:45.458Z,86.00
2023-04-11T17:46:52.488Z,86.25
2023-04-11T17:50:01.617Z,87.12
2023-04-11T17:53:09.542Z,87.94
2023-04-11T17:56:17.364Z,87.26
2023-04-11T17:59:25.134Z,87.51
2023-04-11T18:02:35.673Z,89.09
2023-04-11T18:05:45.148Z,89.19
2023-04-11T18:08:53.005Z,89.54
2023-04-11T18:12:01.766Z,90.22
2023-04-11T18:15:09.842Z,91.40
2023-04-11T18:18:16.875Z,91.81
2023-04-11T18:21:26.110Z,92.22
2023-04-11T18:24:33.632Z,92.68
2023-04-11T18:27:40.738Z,92.88
2023-04-11T18:30:49.840Z,93.24
2023-04-11T18:33:57.709Z,93.13
2023-04-11T18:37:04.938Z,92.76
2023-04-11T18:40:12.632Z,92.86
2023-04-11T18:43:21.209Z,93.38
2023-04-11T18:46:28.804Z,93.38
2023-04-11T18:49:36.973Z,93.69
2023-04-11T18:52:48.115Z,93.94
2023-04-11T18:55:56.761Z,94.04
2023-04-11T18:59:08.772Z,94.25
2023-04-11T19:02:08.189Z,93.59
2023-04-11T19:05:15.942Z,93.53
2023-04-11T19:08:23.802Z,93.53
2023-04-11T19:11:32.795Z,93.43
2023-04-11T19:14:40.338Z,93.47
2023-04-11T19:17:47.774Z,93.37
2023-04-11T19:20:55.394Z,93.93
2023-04-11T19:24:04.652Z,94.65
2023-04-11T19:27:12.059Z,95.06
2023-04-11T19:30:20.986Z,94.96
2023-04-11T19:33:30.143Z,94.96
2023-04-11T19:36:37.691Z,94.96
2023-04-11T19:39:45.483Z,94.96
2023-04-11T19:42:53.947Z,95.06
2023-04-11T19:46:01.861Z,95.00
2023-04-11T19:49:09.229Z,95.10
2023-04-11T19:52:17.791Z,95.00
2023-04-11T19:55:25.577Z,95.00
2023-04-11T19:58:33.203Z,95.00
2023-04-11T20:01:41.964Z,95.15
2023-04-11T20:04:49.655Z,95.46
2023-04-11T20:07:57.348Z,95.56
2023-04-11T20:11:04.335Z,95.46
2023-04-11T20:14:13.748Z,95.40
2023-04-11T20:17:21.642Z,95.61
2023-04-11T20:20:29.158Z,95.61
2023-04-11T20:23:38.146Z,95.19
2023-04-11T20:26:45.497Z,94.89
2023-04-11T20:29:52.845Z,94.78
2023-04-11T20:33:02.093Z,94.57
2023-04-11T20:36:09.515Z,94.37
2023-04-11T20:39:16.890Z,94.31
2023-04-11T20:42:25.716Z,94.62
2023-04-11T20:45:33.746Z,94.62
2023-04-11T20:48:41.333Z,94.51
2023-04-11T20:51:49.072Z,94.51
2023-04-11T20:54:57.956Z,94.41
2023-04-11T20:58:05.832Z,94.10
2023-04-11T21:01:13.164Z,94.62
2023-04-11T21:04:22.751Z,94.41
2023-04-11T21:07:30.530Z,94.20
2023-04-11T21:10:38.135Z,94.56
2023-04-11T21:13:47.164Z,94.45
2023-04-11T21:16:54.987Z,94.14
2023-04-11T21:20:02.475Z,94.14
2023-04-11T21:23:11.942Z,94.24
2023-04-11T21:26:19.637Z,94.08
2023-04-11T21:29:27.308Z,94.49
2023-04-11T21:32:35.079Z,94.70
2023-04-11T21:35:44.793Z,94.81
2023-04-11T21:38:52.112Z,94.70
2023-04-11T21:42:00.607Z,94.91
2023-04-11T21:45:10.126Z,94.81
2023-04-11T21:48:18.453Z,94.70
2023-04-11T21:51:25.671Z,94.60
2023-04-11T21:54:34.912Z,94.39
2023-04-11T21:57:42.212Z,94.49
2023-04-11T22:00:49.523Z,94.70
2023-04-11T22:03:58.960Z,94.39
2023-04-11T22:07:06.734Z,94.18
2023-04-11T22:10:14.190Z,94.08
2023-04-11T22:13:21.663Z,93.87
2023-04-11T22:16:30.333Z,93.66
2023-04-11T22:19:38.330Z,93.87
2023-04-11T22:22:46.539Z,93.91
2023-04-11T22:25:55.276Z,93.60
2023-04-11T22:29:03.492Z,93.29
2023-04-11T22:32:11.225Z,93.19
2023-04-11T22:35:20.057Z,92.98
2023-04-11T22:38:27.787Z,92.78
2023-04-11T22:41:35.357Z,92.78
2023-04-11T22:44:44.086Z,92.36
2023-04-11T22:47:52.016Z,92.16
2023-04-11T22:50:59.777Z,92.16
2023-04-11T22:54:08.176Z,92.20
2023-04-11T22:57:15.871Z,92.30
2023-04-11T23:00:23.413Z,92.30
2023-04-11T23:03:31.330Z,92.41
2023-04-11T23:06:39.819Z,92.51
2023-04-11T23:09:47.562Z,92.41
2023-04-11T23:12:55.033Z,92.30
2023-04-11T23:16:03.660Z,92.30
2023-04-11T23:19:11.551Z,92.51
2023-04-11T23:22:18.981Z,92.41
2023-04-11T23:25:27.535Z,92.55
2023-04-11T23:28:35.461Z,92.66
2023-04-11T23:31:43.187Z,92.55
2023-04-11T23:34:52.768Z,92.66
2023-04-11T23:38:00.407Z,92.76
2023-04-11T23:41:07.848Z,92.55
2023-04-11T23:44:15.189Z,92.24
2023-04-11T23:47:24.419Z,91.99
2023-04-11T23:50:31.851Z,91.68
2023-04-11T23:53:39.361Z,91.37
2023-04-11T23:56:48.292Z,91.27
2023-04-11T23:59:56.082Z,91.06
